Time;durP1;ratioP1;P1;durP2;ratioP2;P2;SDS_P1;SDS_P2;PMS_P1;PMS_P2;Temp;Humidity;BMP_temperature;BMP_pressure;BME280_temperature;BME280_humidity;BME280_pressure;Samples;Min_cycle;Max_cycle;Signal;HPM_P1;HPM_P2
2021/05/12 00:02:24;;;;;;;2.33;1.50;;;;;;;11.72;81.46;98335.22;5147357;27;20054;-91
2021/05/12 00:04:50;;;;;;;1.58;1.42;;;;;;;11.71;81.00;98322.84;5142729;27;20063;-92
2021/05/12 00:07:16;;;;;;;2.78;1.50;;;;;;;11.80;80.86;98333.13;5142275;27;20085;-93
2021/05/12 00:09:43;;;;;;;2.03;1.40;;;;;;;11.77;81.08;98322.56;5144008;27;20046;-91
2021/05/12 00:12:09;;;;;;;2.15;1.48;;;;;;;11.73;79.38;98320.94;5143487;27;20039;-93
2021/05/12 00:17:37;;;;;;;2.55;1.50;;;;;;;11.93;80.44;98330.88;5131297;27;20352;-93
2021/05/12 00:20:04;;;;;;;2.28;1.50;;;;;;;12.03;82.13;98334.91;5131270;27;20050;-91
2021/05/12 00:25:15;;;;;;;2.92;1.60;;;;;;;12.09;80.97;98324.00;5131261;27;20337;-93
2021/05/12 00:27:41;;;;;;;2.30;1.55;;;;;;;12.04;79.94;98318.00;5133899;27;20483;-90
2021/05/12 00:30:09;;;;;;;3.92;1.90;;;;;;;12.06;81.25;98310.81;5133699;27;20063;-93
2021/05/12 00:32:35;;;;;;;2.70;1.50;;;;;;;12.12;81.98;98309.66;5132157;27;20093;-91
2021/05/12 00:35:02;;;;;;;3.20;1.60;;;;;;;12.18;80.75;98292.56;5137600;27;20039;-93
2021/05/12 00:37:28;;;;;;;2.22;1.50;;;;;;;12.11;81.46;98308.81;5133219;27;20043;-93
2021/05/12 00:39:53;;;;;;;2.63;1.50;;;;;;;12.06;81.65;98316.13;5135654;27;20043;-93
2021/05/12 00:42:20;;;;;;;2.50;1.67;;;;;;;12.06;82.78;98300.16;5134343;27;20247;-94
2021/05/12 00:44:46;;;;;;;3.30;1.70;;;;;;;12.20;81.51;98309.38;5131528;27;20027;-93
2021/05/12 00:47:12;;;;;;;3.80;1.60;;;;;;;12.22;80.99;98300.38;5135427;27;20423;-93
2021/05/12 00:49:37;;;;;;;2.67;1.60;;;;;;;12.32;81.19;98311.53;5133748;27;20404;-92
2021/05/12 00:52:04;;;;;;;2.78;1.52;;;;;;;12.38;81.39;98310.41;5132259;27;20052;-92
2021/05/12 00:54:32;;;;;;;2.08;1.58;;;;;;;12.32;80.66;98311.53;5133514;27;20122;-93
2021/05/12 00:56:58;;;;;;;2.10;1.65;;;;;;;12.23;80.06;98303.91;5134876;27;20049;-95
2021/05/12 00:59:31;;;;;;;4.13;1.60;;;;;;;12.24;80.35;98301.19;5135247;27;20067;-95
2021/05/12 01:01:58;;;;;;;2.10;1.58;;;;;;;12.34;79.42;98283.03;5134701;27;20035;-93
2021/05/12 01:04:23;;;;;;;2.22;1.60;;;;;;;12.36;78.91;98293.59;5134470;27;20027;-93
2021/05/12 01:06:49;;;;;;;2.45;1.60;;;;;;;12.22;80.25;98299.50;5135780;27;20043;-93
2021/05/12 01:09:15;;;;;;;2.50;1.70;;;;;;;12.13;79.44;98296.28;5132201;27;20043;-94
2021/05/12 01:11:41;;;;;;;3.40;1.65;;;;;;;11.97;81.23;98273.00;5130660;27;20077;-93
2021/05/12 01:14:07;;;;;;;2.90;1.67;;;;;;;12.00;79.68;98272.88;5132182;27;20043;-93
2021/05/12 01:16:34;;;;;;;3.72;2.00;;;;;;;12.17;79.24;98290.84;5129669;27;20126;-94
2021/05/12 01:19:00;;;;;;;2.90;1.83;;;;;;;12.05;79.49;98271.75;5137776;27;20047;-93
2021/05/12 01:21:27;;;;;;;3.92;1.75;;;;;;;12.09;78.35;98278.69;5138731;27;20035;-92
2021/05/12 01:23:53;;;;;;;3.80;1.73;;;;;;;12.15;78.60;98282.06;5136050;27;20507;-93
2021/05/12 01:26:21;;;;;;;3.13;1.90;;;;;;;12.15;78.78;98277.56;5131839;27;20031;-92
2021/05/12 01:28:48;;;;;;;2.10;1.70;;;;;;;12.19;79.35;98284.53;5136191;27;20066;-93
2021/05/12 01:31:16;;;;;;;3.00;1.70;;;;;;;12.06;80.51;98256.66;5132363;27;20042;-92
2021/05/12 01:33:44;;;;;;;3.28;1.80;;;;;;;12.07;80.91;98269.88;5137332;27;20050;-94
2021/05/12 01:36:11;;;;;;;2.90;1.98;;;;;;;12.10;80.96;98284.88;5119759;27;20412;-92
2021/05/12 01:38:40;;;;;;;3.10;1.77;;;;;;;12.03;80.57;98294.91;5117844;27;20032;-92
2021/05/12 01:41:07;;;;;;;2.78;1.83;;;;;;;12.03;80.87;98273.59;5118035;27;20592;-93
2021/05/12 01:43:36;;;;;;;2.38;1.80;;;;;;;12.03;81.37;98262.94;5120034;27;20404;-93
2021/05/12 01:46:03;;;;;;;3.00;1.80;;;;;;;12.15;81.33;98280.25;5120874;27;20495;-93
2021/05/12 01:48:30;;;;;;;3.70;1.83;;;;;;;11.99;81.57;98256.03;5115334;28;20047;-93
2021/05/12 01:50:56;;;;;;;2.60;1.67;;;;;;;12.09;80.49;98260.03;5116340;28;20078;-92
2021/05/12 01:53:23;;;;;;;3.28;1.90;;;;;;;12.08;81.16;98268.97;5119667;27;20043;-93
2021/05/12 01:55:51;;;;;;;3.80;1.80;;;;;;;12.10;81.16;98271.56;5117426;27;20031;-90
2021/05/12 01:58:18;;;;;;;3.15;1.85;;;;;;;12.02;80.90;98263.88;5122076;27;20043;-93
2021/05/12 02:00:46;;;;;;;4.30;1.92;;;;;;;12.06;81.80;98269.97;5116170;27;20071;-92
2021/05/12 02:03:12;;;;;;;2.72;1.90;;;;;;;12.10;81.67;98269.78;5119999;27;20118;-92
2021/05/12 02:05:39;;;;;;;4.22;2.00;;;;;;;12.05;80.58;98255.75;5120373;27;20066;-93
2021/05/12 02:08:12;;;;;;;2.22;1.90;;;;;;;12.10;80.39;98275.09;5120928;27;20039;-92
2021/05/12 02:10:39;;;;;;;2.80;1.80;;;;;;;11.97;80.24;98255.22;5117729;27;20393;-93
2021/05/12 02:13:07;;;;;;;2.58;1.88;;;;;;;12.16;82.04;98259.78;5117584;27;20048;-92
2021/05/12 02:15:32;;;;;;;3.58;2.05;;;;;;;12.20;81.36;98264.06;5118831;27;20432;-93
2021/05/12 02:17:58;;;;;;;3.60;1.90;;;;;;;12.21;80.56;98261.34;5121734;27;20054;-92
2021/05/12 02:20:28;;;;;;;2.97;2.22;;;;;;;12.13;81.19;98248.31;5115946;28;20063;-93
2021/05/12 02:22:55;;;;;;;4.47;2.10;;;;;;;12.26;80.32;98262.00;5120047;27;20058;-92
2021/05/12 02:25:20;;;;;;;3.17;2.15;;;;;;;12.27;81.08;98263.75;5119280;27;20070;-92
2021/05/12 02:27:46;;;;;;;2.90;1.95;;;;;;;12.17;81.07;98237.53;5122085;27;20058;-92
2021/05/12 02:30:14;;;;;;;3.55;2.03;;;;;;;12.29;81.15;98256.53;5128070;27;20066;-92
2021/05/12 02:32:40;;;;;;;4.13;2.08;;;;;;;12.21;81.27;98234.69;5118718;27;20086;-92
2021/05/12 02:35:08;;;;;;;3.63;2.00;;;;;;;12.27;80.95;98246.88;5119544;27;20554;-92
2021/05/12 02:37:34;;;;;;;3.58;2.00;;;;;;;12.18;80.61;98244.59;5118104;27;20396;-92
2021/05/12 02:40:01;;;;;;;3.75;2.20;;;;;;;12.05;81.41;98223.78;5119716;27;20043;-92
2021/05/12 02:42:27;;;;;;;4.95;2.00;;;;;;;12.20;80.43;98248.06;5118384;27;20044;-92
2021/05/12 02:44:53;;;;;;;3.30;2.03;;;;;;;12.14;80.58;98227.84;5118196;27;20050;-95
2021/05/12 02:47:20;;;;;;;3.58;1.98;;;;;;;12.08;80.55;98221.00;5115179;27;20028;-92
2021/05/12 02:49:46;;;;;;;3.92;2.42;;;;;;;12.04;79.34;98231.84;5118495;27;20035;-94
2021/05/12 02:52:12;;;;;;;5.15;2.30;;;;;;;12.15;80.82;98236.75;5118409;27;20484;-92
2021/05/12 02:54:37;;;;;;;3.92;2.13;;;;;;;12.05;80.38;98233.56;5121224;27;20988;-93
2021/05/12 02:57:04;;;;;;;3.50;1.98;;;;;;;12.03;80.34;98238.97;5117800;27;20038;-93
2021/05/12 02:59:30;;;;;;;3.20;2.40;;;;;;;12.11;80.25;98238.66;5117796;27;20047;-92
2021/05/12 03:01:56;;;;;;;3.85;2.40;;;;;;;12.02;80.23;98209.72;5120552;27;20465;-94
2021/05/12 03:04:23;;;;;;;5.93;2.50;;;;;;;11.92;80.38;98202.09;5123404;27;20039;-93
2021/05/12 03:06:49;;;;;;;4.97;2.90;;;;;;;11.91;80.61;98203.03;5120683;27;20089;-94
2021/05/12 03:09:15;;;;;;;3.17;2.33;;;;;;;11.99;80.67;98237.38;5124840;27;20036;-93
2021/05/12 03:11:47;;;;;;;3.80;2.55;;;;;;;11.87;81.25;98213.88;5116071;27;20050;-94
2021/05/12 03:14:13;;;;;;;6.22;2.70;;;;;;;11.99;80.57;98237.38;5117366;27;20122;-92
2021/05/12 03:16:38;;;;;;;4.10;2.90;;;;;;;12.01;80.55;98234.63;5117393;27;20105;-92
2021/05/12 03:19:05;;;;;;;4.05;2.80;;;;;;;11.96;80.40;98237.50;5116526;27;20939;-93
2021/05/12 03:21:33;;;;;;;4.18;2.90;;;;;;;11.77;80.85;98237.34;5118099;27;20396;-91
2021/05/12 03:24:00;;;;;;;4.38;3.13;;;;;;;11.75;80.83;98243.66;5120661;27;20074;-91
2021/05/12 03:26:26;;;;;;;6.88;2.97;;;;;;;11.73;80.48;98241.03;5122530;27;20082;-92
2021/05/12 03:28:52;;;;;;;4.68;2.85;;;;;;;11.67;80.38;98243.97;5116223;27;20062;-91
2021/05/12 03:31:18;;;;;;;5.55;3.45;;;;;;;11.61;80.92;98239.75;5116611;27;20042;-94
2021/05/12 03:33:44;;;;;;;5.20;3.40;;;;;;;11.53;81.16;98231.19;5118871;27;20040;-93
2021/05/12 03:36:11;;;;;;;4.63;3.25;;;;;;;11.59;81.47;98230.94;5116145;27;20126;-92
2021/05/12 03:38:38;;;;;;;5.80;3.10;;;;;;;11.60;81.09;98245.13;5122831;27;20045;-93
2021/05/12 03:41:06;;;;;;;4.25;3.10;;;;;;;11.40;81.11;98229.94;5122138;27;20161;-94
2021/05/12 03:43:33;;;;;;;4.75;3.20;;;;;;;11.31;81.79;98231.16;5115651;27;20036;-94
2021/05/12 03:46:00;;;;;;;5.05;3.15;;;;;;;11.36;81.79;98245.16;5118690;27;20075;-94
2021/05/12 03:48:25;;;;;;;6.50;3.08;;;;;;;11.32;81.64;98259.53;5115558;28;20048;-94
2021/05/12 03:50:51;;;;;;;5.55;3.00;;;;;;;11.10;81.68;98243.50;5113679;28;20493;-93
2021/05/12 03:53:17;;;;;;;4.80;3.00;;;;;;;11.16;81.80;98253.91;5118688;27;20031;-91
2021/05/12 03:55:44;;;;;;;4.70;2.80;;;;;;;10.95;81.85;98230.75;5119939;27;20055;-93
2021/05/12 03:58:10;;;;;;;5.55;2.88;;;;;;;10.94;82.09;98237.03;5115221;28;20553;-93
2021/05/12 04:00:35;;;;;;;5.40;2.80;;;;;;;10.96;82.22;98240.50;5115396;27;20044;-91
2021/05/12 04:03:01;;;;;;;4.10;2.80;;;;;;;11.01;81.97;98251.81;5115477;28;20043;-93
2021/05/12 04:05:27;;;;;;;5.80;3.00;;;;;;;10.90;82.09;98234.47;5117088;28;20047;-92
2021/05/12 04:07:53;;;;;;;4.38;2.90;;;;;;;10.89;82.37;98237.19;5118287;27;20047;-91
2021/05/12 04:10:20;;;;;;;4.05;2.60;;;;;;;11.04;81.88;98249.06;5125280;27;20043;-92
2021/05/12 04:12:47;;;;;;;5.63;2.80;;;;;;;10.96;81.46;98245.81;5118674;27;20130;-92
2021/05/12 04:15:14;;;;;;;4.63;2.88;;;;;;;10.94;81.60;98243.22;5112862;28;20031;-92
2021/05/12 04:17:39;;;;;;;4.63;3.10;;;;;;;11.10;81.25;98243.50;5116904;27;20453;-93
2021/05/12 04:20:10;;;;;;;4.25;2.58;;;;;;;11.02;81.08;98241.13;5117235;27;20111;-93
2021/05/12 04:22:36;;;;;;;4.00;2.60;;;;;;;11.06;81.21;98232.13;5115304;28;20085;-93
2021/05/12 04:25:02;;;;;;;6.40;3.25;;;;;;;11.06;81.25;98224.13;5117195;28;20492;-93
2021/05/12 04:27:28;;;;;;;3.63;2.20;;;;;;;11.14;80.88;98245.13;5119582;28;20122;-93
2021/05/12 04:29:55;;;;;;;3.67;2.50;;;;;;;11.06;80.92;98215.25;5115120;28;20074;-93
2021/05/12 04:32:21;;;;;;;3.45;2.50;;;;;;;11.23;80.67;98234.16;5114015;28;20043;-93
2021/05/12 04:34:47;;;;;;;5.80;2.50;;;;;;;11.34;80.05;98249.66;5125986;28;20037;-93
2021/05/12 04:37:13;;;;;;;3.35;2.40;;;;;;;11.41;79.60;98231.69;5120104;27;20118;-93
2021/05/12 04:39:39;;;;;;;4.40;2.40;;;;;;;11.30;79.48;98214.34;5116612;28;20096;-94
2021/05/12 04:42:06;;;;;;;5.28;2.55;;;;;;;11.43;80.05;98235.16;5120138;28;20572;-93
2021/05/12 04:44:31;;;;;;;4.63;2.60;;;;;;;11.38;79.05;98237.97;5116035;28;20043;-94
2021/05/12 04:46:58;;;;;;;4.32;2.72;;;;;;;11.27;79.27;98222.41;5113984;28;20062;-93
2021/05/12 04:49:24;;;;;;;5.25;2.60;;;;;;;11.42;79.33;98244.06;5113810;28;20044;-92
2021/05/12 04:51:50;;;;;;;3.70;2.20;;;;;;;11.52;79.11;98259.63;5115726;28;20104;-93
2021/05/12 04:54:17;;;;;;;3.30;2.53;;;;;;;11.46;79.07;98251.00;5117239;28;20419;-92
2021/05/12 04:56:43;;;;;;;5.80;2.42;;;;;;;11.61;78.51;98255.72;5123649;28;20042;-94
2021/05/12 04:59:09;;;;;;;3.85;2.40;;;;;;;11.82;77.51;98259.34;5115479;28;20063;-93
2021/05/12 05:01:35;;;;;;;4.38;2.70;;;;;;;12.07;77.34;98261.88;5116973;28;20078;-92
2021/05/12 05:04:04;;;;;;;4.45;2.50;;;;;;;12.04;77.22;98264.69;5120319;27;20032;-94
2021/05/12 05:06:30;;;;;;;6.80;2.50;;;;;;;11.83;77.83;98244.22;5114635;28;20061;-92
2021/05/12 05:08:56;;;;;;;5.60;2.85;;;;;;;11.60;78.55;98247.78;5119735;27;20046;-92
2021/05/12 05:11:22;;;;;;;4.95;2.45;;;;;;;11.70;78.60;98252.69;5117544;28;20035;-93
2021/05/12 05:13:48;;;;;;;3.63;2.40;;;;;;;11.76;77.62;98232.09;5119368;27;20059;-92
2021/05/12 05:16:14;;;;;;;4.88;2.58;;;;;;;12.27;76.77;98244.19;5120581;27;20393;-93
2021/05/12 05:18:40;;;;;;;5.80;2.35;;;;;;;12.68;74.30;98239.75;5123277;27;20044;-94
2021/05/12 05:21:07;;;;;;;5.40;2.33;;;;;;;13.09;73.25;98244.16;5122357;27;20455;-94
2021/05/12 05:23:33;;;;;;;5.65;2.22;;;;;;;13.64;72.27;98254.97;5129447;27;20043;-93
2021/05/12 05:25:59;;;;;;;4.50;2.10;;;;;;;13.77;69.67;98224.06;5132942;27;20040;-93
2021/05/12 05:28:25;;;;;;;3.95;2.22;;;;;;;14.05;70.25;98240.53;5127329;27;20095;-94
2021/05/12 05:30:51;;;;;;;4.40;2.03;;;;;;;13.82;69.93;98231.84;5130854;27;20064;-94
2021/05/12 05:33:17;;;;;;;3.70;2.10;;;;;;;14.07;69.77;98222.59;5121182;28;20054;-92
2021/05/12 05:35:43;;;;;;;3.60;2.03;;;;;;;14.14;68.29;98232.06;5125706;27;20028;-93
2021/05/12 05:38:10;;;;;;;2.78;2.00;;;;;;;14.16;68.20;98228.38;5123543;27;20034;-94
2021/05/12 05:40:36;;;;;;;5.38;2.35;;;;;;;14.18;68.16;98244.31;5122375;27;20032;-92
2021/05/12 05:43:02;;;;;;;4.40;2.13;;;;;;;14.24;69.43;98246.69;5121771;27;20039;-94
2021/05/12 05:45:29;;;;;;;3.85;2.08;;;;;;;14.23;67.62;98228.94;5118829;28;20044;-93
2021/05/12 05:47:55;;;;;;;3.08;1.70;;;;;;;14.62;66.74;98238.56;5119692;27;20035;-93
2021/05/12 05:50:21;;;;;;;4.85;2.13;;;;;;;14.65;67.03;98230.34;5123599;27;20061;-95
2021/05/12 05:52:47;;;;;;;2.63;2.00;;;;;;;14.72;66.73;98245.13;5128922;27;20531;-93
2021/05/12 05:55:14;;;;;;;2.22;1.80;;;;;;;14.02;68.44;98233.53;5125560;27;20058;-94
2021/05/12 05:57:41;;;;;;;3.05;1.80;;;;;;;14.07;69.33;98223.47;5118205;27;20051;-93
2021/05/12 06:00:08;;;;;;;5.68;2.10;;;;;;;14.44;69.33;98228.75;5124017;27;20079;-93
2021/05/12 06:02:35;;;;;;;3.63;2.33;;;;;;;14.71;68.11;98219.34;5135606;27;20039;-94
2021/05/12 06:05:02;;;;;;;7.57;2.10;;;;;;;14.71;67.23;98231.84;5120937;28;20500;-92
2021/05/12 06:07:28;;;;;;;3.65;1.90;;;;;;;14.69;66.95;98210.53;5119227;28;20035;-94
2021/05/12 06:09:54;;;;;;;14.05;3.25;;;;;;;14.67;67.84;98214.22;5122789;27;20063;-95
2021/05/12 06:12:21;;;;;;;4.00;1.92;;;;;;;14.69;67.97;98236.44;5126351;27;20046;-93
2021/05/12 06:14:47;;;;;;;4.47;2.28;;;;;;;14.87;67.23;98238.13;5131698;27;20065;-92
2021/05/12 06:17:13;;;;;;;3.33;1.90;;;;;;;14.72;66.50;98214.84;5124878;27;20047;-93
2021/05/12 06:19:39;;;;;;;3.85;2.13;;;;;;;14.57;67.05;98214.72;5123003;27;20044;-94
2021/05/12 06:22:05;;;;;;;3.92;2.25;;;;;;;14.57;67.66;98224.53;5125395;27;20114;-94
2021/05/12 06:24:31;;;;;;;4.80;2.22;;;;;;;14.62;66.80;98218.97;5118469;28;20044;-94
2021/05/12 06:26:57;;;;;;;5.03;2.40;;;;;;;15.07;66.53;98214.75;5125543;27;20488;-94
2021/05/12 06:29:24;;;;;;;5.53;2.05;;;;;;;15.53;65.29;98231.88;5122476;27;20043;-94
2021/05/12 06:31:50;;;;;;;4.82;2.10;;;;;;;15.78;64.16;98222.47;5125963;27;20120;-93
2021/05/12 06:34:16;;;;;;;4.90;2.00;;;;;;;16.02;63.18;98218.34;5132510;27;20047;-93
2021/05/12 06:36:42;;;;;;;4.68;2.28;;;;;;;15.94;63.80;98222.44;5121423;28;20040;-94
2021/05/12 06:39:08;;;;;;;7.03;2.08;;;;;;;15.80;62.69;98248.22;5121285;27;20071;-92
2021/05/12 06:41:34;;;;;;;3.35;2.05;;;;;;;15.95;63.21;98245.63;5124996;27;20046;-94
2021/05/12 06:44:00;;;;;;;5.03;1.90;;;;;;;16.19;63.67;98241.53;5129240;27;20031;-92
2021/05/12 06:46:26;;;;;;;2.83;1.85;;;;;;;16.12;62.08;98220.53;5119832;27;20035;-95
2021/05/12 06:48:52;;;;;;;2.78;1.90;;;;;;;16.43;62.23;98249.94;5120175;28;20036;-93
2021/05/12 06:51:18;;;;;;;3.70;1.75;;;;;;;16.23;62.59;98239.53;5121696;27;20089;-94
2021/05/12 06:53:44;;;;;;;3.15;1.90;;;;;;;16.39;61.21;98223.38;5122302;27;20032;-91
2021/05/12 06:56:10;;;;;;;4.35;2.00;;;;;;;16.78;60.60;98235.38;5131682;27;20050;-93
2021/05/12 06:58:40;;;;;;;5.05;2.00;;;;;;;16.44;60.87;98258.88;5116937;27;20031;-94
2021/05/12 07:01:06;;;;;;;4.68;1.80;;;;;;;16.53;60.08;98236.84;5115562;27;20070;-94
2021/05/12 07:03:33;;;;;;;3.28;2.00;;;;;;;16.71;60.06;98252.81;5118693;27;20063;-93
2021/05/12 07:06:00;;;;;;;4.75;1.92;;;;;;;16.30;61.52;98242.72;5118385;27;20036;-93
2021/05/12 07:08:26;;;;;;;2.85;1.80;;;;;;;16.41;60.57;98245.63;5118689;27;20123;-92
2021/05/12 07:10:52;;;;;;;6.95;2.10;;;;;;;16.88;60.36;98230.34;5123772;27;20073;-94
2021/05/12 07:13:18;;;;;;;4.88;1.92;;;;;;;17.23;60.00;98242.44;5120898;27;20039;-92
2021/05/12 07:15:44;;;;;;;4.05;1.60;;;;;;;17.10;59.45;98228.06;5117318;28;20061;-93
2021/05/12 07:18:10;;;;;;;3.97;1.70;;;;;;;17.18;58.38;98236.50;5122003;27;20052;-95
2021/05/12 07:20:37;;;;;;;5.57;2.00;;;;;;;17.21;59.11;98246.19;5118431;28;20036;-94
2021/05/12 07:23:04;;;;;;;4.90;1.90;;;;;;;17.66;57.36;98246.94;5118174;28;20047;-96
2021/05/12 07:25:31;;;;;;;5.32;1.77;;;;;;;18.04;56.42;98227.44;5118469;28;20553;-95
2021/05/12 07:27:56;;;;;;;6.75;1.65;;;;;;;18.46;55.21;98230.94;5119254;27;20047;-93
2021/05/12 07:30:24;;;;;;;6.50;2.10;;;;;;;18.66;54.88;98241.19;5118291;27;20476;-94
2021/05/12 07:32:49;;;;;;;3.95;1.73;;;;;;;18.48;54.97;98216.38;5116265;28;20055;-93
2021/05/12 07:35:16;;;;;;;6.13;1.92;;;;;;;19.01;54.11;98202.88;5121943;27;20035;-95
2021/05/12 07:37:43;;;;;;;6.28;1.90;;;;;;;19.58;51.99;98208.72;5121768;27;20050;-94
2021/05/12 07:40:10;;;;;;;6.28;2.00;;;;;;;19.18;53.16;98225.09;5131637;27;20047;-90
2021/05/12 07:42:38;;;;;;;6.05;2.03;;;;;;;19.78;52.58;98221.66;5118830;27;20126;-91
2021/05/12 07:45:05;;;;;;;;;;;;;;;20.17;50.81;98229.59;5115282;28;20042;-93
2021/05/12 07:47:30;;;;;;;3.28;1.70;;;;;;;19.12;52.89;98230.91;5120322;27;20026;-92
2021/05/12 07:49:56;;;;;;;4.70;1.70;;;;;;;18.32;54.30;98206.75;5117976;28;20063;-92
2021/05/12 07:52:22;;;;;;;4.90;1.90;;;;;;;17.92;55.94;98226.44;5119892;27;20035;-93
2021/05/12 07:54:49;;;;;;;4.93;1.83;;;;;;;17.12;58.49;98238.72;5120747;27;20032;-91
2021/05/12 07:57:15;;;;;;;5.20;2.05;;;;;;;16.81;59.08;98221.81;5122849;27;20040;-91
2021/05/12 07:59:41;;;;;;;4.68;1.92;;;;;;;16.88;59.94;98217.78;5123775;27;20100;-95
2021/05/12 08:02:07;;;;;;;6.57;2.30;;;;;;;17.14;57.78;98200.03;5118442;27;20058;-91
2021/05/12 08:04:34;;;;;;;4.88;2.10;;;;;;;17.45;57.87;98215.06;5118308;28;20500;-93
2021/05/12 08:07:00;;;;;;;4.35;1.83;;;;;;;17.27;58.06;98212.72;5119217;27;20035;-94
2021/05/12 08:09:27;;;;;;;3.88;2.15;;;;;;;17.02;57.69;98192.75;5117643;28;20067;-93
2021/05/12 08:11:54;;;;;;;8.13;2.35;;;;;;;16.92;58.61;98208.56;5118952;28;20069;-94
2021/05/12 08:14:20;;;;;;;2.47;1.70;;;;;;;16.87;59.61;98231.28;5120133;27;20422;-95
2021/05/12 08:16:46;;;;;;;5.00;2.25;;;;;;;16.27;60.24;98224.13;5117563;28;20043;-93
2021/05/12 08:19:13;;;;;;;6.35;2.15;;;;;;;16.37;60.30;98217.25;5122555;27;20036;-94
2021/05/12 08:21:39;;;;;;;6.35;2.40;;;;;;;16.39;59.96;98213.53;5119836;28;20043;-94
2021/05/12 08:24:06;;;;;;;7.32;2.08;;;;;;;16.41;60.92;98224.16;5119908;28;20058;-94
2021/05/12 08:26:32;;;;;;;4.25;2.22;;;;;;;16.33;61.72;98221.97;5122159;27;20045;-94
2021/05/12 08:29:00;;;;;;;5.90;1.90;;;;;;;16.51;61.45;98238.78;5118028;28;20047;-94
2021/05/12 08:31:27;;;;;;;5.63;2.47;;;;;;;16.63;60.88;98204.94;5124830;28;20031;-93
2021/05/12 08:33:53;;;;;;;6.72;2.80;;;;;;;17.71;58.61;98233.19;5120477;27;20099;-94
2021/05/12 08:36:19;;;;;;;4.47;2.55;;;;;;;18.03;57.50;98226.59;5122892;28;20047;-95
2021/05/12 08:41:45;;;;;;;8.38;2.80;;;;;;;17.48;59.99;98224.78;5115567;27;20346;-94
2021/05/12 08:47:14;;;;;;;3.85;1.77;;;;;;;16.52;60.54;98221.69;5159632;27;20335;-95
2021/05/12 08:49:41;;;;;;;4.35;1.92;;;;;;;16.99;59.81;98209.91;5153838;27;20437;-93
2021/05/12 08:52:07;;;;;;;4.68;2.20;;;;;;;18.48;56.38;98216.38;5159080;27;20791;-95
2021/05/12 08:54:34;;;;;;;5.65;2.15;;;;;;;19.48;52.65;98217.50;5159529;27;20218;-93
2021/05/12 08:56:59;;;;;;;3.40;1.67;;;;;;;19.82;50.90;98189.91;5165235;27;20034;-94
2021/05/12 08:59:25;;;;;;;5.68;2.10;;;;;;;19.08;51.79;98198.81;5156339;27;20031;-92
2021/05/12 09:01:51;;;;;;;7.25;2.00;;;;;;;18.76;53.27;98200.16;5156758;27;20122;-94
2021/05/12 09:04:18;;;;;;;5.32;2.88;;;;;;;18.43;54.33;98228.44;5159203;27;20035;-94
2021/05/12 09:06:44;;;;;;;8.70;2.58;;;;;;;18.00;55.27;98199.00;5156462;27;20030;-94
2021/05/12 09:09:10;;;;;;;6.63;2.40;;;;;;;17.98;55.26;98212.59;5157478;27;20043;-93
2021/05/12 09:11:36;;;;;;;6.63;2.30;;;;;;;18.22;54.99;98201.16;5157986;27;20045;-93
2021/05/12 09:14:03;;;;;;;7.00;2.10;;;;;;;18.13;55.04;98199.06;5157708;27;20034;-95
2021/05/12 09:16:30;;;;;;;4.47;1.98;;;;;;;17.90;53.62;98230.19;5165572;27;20035;-94
2021/05/12 09:19:01;;;;;;;5.38;2.03;;;;;;;17.64;54.47;98198.63;5160147;27;20035;-93
2021/05/12 09:21:45;;;;;;;6.43;1.92;;;;;;;17.48;54.81;98214.03;5159467;27;20371;-94
2021/05/12 09:24:18;;;;;;;3.70;1.90;;;;;;;16.94;55.04;98198.59;5159616;27;20103;-92
2021/05/12 09:26:45;;;;;;;6.90;1.90;;;;;;;16.74;55.82;98202.50;5157858;27;20043;-94
2021/05/12 09:29:11;;;;;;;4.60;2.15;;;;;;;16.80;56.83;98225.44;5166181;27;20034;-96
2021/05/12 09:31:37;;;;;;;2.95;1.90;;;;;;;16.80;56.07;98231.66;5159230;27;20134;-95
2021/05/12 09:34:06;;;;;;;6.03;2.00;;;;;;;16.77;58.20;98234.50;5158108;27;20434;-95
2021/05/12 09:36:32;;;;;;;4.45;2.63;;;;;;;16.50;58.18;98212.88;5157556;27;20034;-93
2021/05/12 09:38:59;;;;;;;5.43;3.00;;;;;;;16.78;58.41;98224.63;5159829;27;20491;-92
2021/05/12 09:41:32;;;;;;;6.18;2.40;;;;;;;17.04;57.70;98217.69;5168431;27;20046;-91
2021/05/12 09:43:59;;;;;;;5.25;2.17;;;;;;;17.16;56.69;98234.88;5161687;27;20519;-92
2021/05/12 09:46:27;;;;;;;5.57;2.05;;;;;;;17.08;56.69;98213.00;5155974;27;20063;-93
2021/05/12 09:49:13;;;;;;;5.40;2.72;;;;;;;17.22;56.47;98227.28;5157188;27;20488;-92
2021/05/12 09:51:41;;;;;;;9.25;2.53;;;;;;;17.21;56.40;98216.63;5155508;27;20052;-93
2021/05/12 09:54:11;;;;;;;4.80;2.30;;;;;;;17.02;56.36;98204.38;5156075;27;20578;-93
2021/05/12 09:56:42;;;;;;;6.72;2.30;;;;;;;16.99;57.32;98209.91;5152128;27;20035;-93
2021/05/12 09:59:10;;;;;;;6.78;2.40;;;;;;;16.83;58.23;98191.22;5134799;27;20045;-94
2021/05/12 10:01:44;;;;;;;7.15;2.35;;;;;;;16.71;59.82;98207.19;5141447;27;20035;-93
2021/05/12 10:04:25;;;;;;;8.70;2.50;;;;;;;16.53;61.50;98218.06;5145249;27;20122;-93
2021/05/12 10:06:51;;;;;;;4.90;2.45;;;;;;;16.51;62.40;98214.63;5152409;27;20047;-92
2021/05/12 10:09:20;;;;;;;6.70;2.42;;;;;;;16.54;61.59;98209.06;5142638;27;20066;-96
2021/05/12 10:12:07;;;;;;;5.13;2.20;;;;;;;16.54;59.36;98217.09;5149118;27;20066;-93
2021/05/12 10:14:35;;;;;;;4.40;1.80;;;;;;;16.68;56.21;98199.31;5132381;27;20596;-92
2021/05/12 10:17:01;;;;;;;6.65;1.90;;;;;;;16.80;56.95;98207.50;5144044;27;20042;-94
2021/05/12 10:19:27;;;;;;;4.40;2.10;;;;;;;16.91;57.62;98212.19;5139271;27;20160;-93
2021/05/12 10:21:53;;;;;;;4.30;1.90;;;;;;;17.03;59.48;98207.91;5139774;27;20651;-94
2021/05/12 10:24:21;;;;;;;4.60;1.95;;;;;;;17.25;58.95;98221.72;5147005;27;20043;-95
2021/05/12 10:26:48;;;;;;;5.38;1.92;;;;;;;17.56;59.07;98235.03;5144563;27;20127;-94
2021/05/12 10:29:17;;;;;;;3.83;1.80;;;;;;;17.99;57.40;98216.13;5142280;27;20050;-95
2021/05/12 10:31:43;;;;;;;5.20;2.10;;;;;;;18.42;56.54;98226.72;5152804;27;20134;-94
2021/05/12 10:34:09;;;;;;;4.90;2.10;;;;;;;18.67;55.24;98194.47;5138447;27;20043;-94
2021/05/12 10:36:35;;;;;;;5.20;2.05;;;;;;;18.94;54.61;98206.13;5136206;27;20039;-94
2021/05/12 10:39:02;;;;;;;5.22;2.38;;;;;;;18.90;54.15;98201.94;5145468;27;20047;-93
2021/05/12 10:45:01;;;;;;;5.70;2.20;;;;;;;18.61;54.67;98204.78;5190220;27;20332;-92
2021/05/12 10:47:37;;;;;;;4.28;2.20;;;;;;;19.00;55.20;98195.78;5157660;27;20445;-93
2021/05/12 10:50:04;;;;;;;3.70;2.10;;;;;;;19.19;53.59;98178.28;5139190;27;20132;-96
2021/05/12 10:52:30;;;;;;;7.85;2.58;;;;;;;19.60;53.14;98177.97;5156621;27;20039;-95
2021/05/12 10:54:56;;;;;;;4.95;2.22;;;;;;;19.95;51.79;98187.16;5157366;27;20065;-95
2021/05/12 10:57:52;;;;;;;4.65;2.22;;;;;;;20.85;48.84;98211.84;5159284;27;20042;-95
2021/05/12 11:00:20;;;;;;;6.55;2.63;;;;;;;21.29;48.06;98205.59;5115730;28;20039;-91
2021/05/12 11:06:02;;;;;;;6.18;2.33;;;;;;;21.20;48.43;98182.00;5137761;27;20343;-94
2021/05/12 11:08:27;;;;;;;7.53;2.50;;;;;;;21.12;46.25;98190.75;5124603;28;20078;-94
2021/05/12 11:10:59;;;;;;;5.63;2.30;;;;;;;21.67;46.35;98190.00;5118700;28;20036;-95
2021/05/12 11:13:27;;;;;;;6.85;2.42;;;;;;;21.79;44.61;98193.53;5116972;28;20042;-93
2021/05/12 11:15:55;;;;;;;4.90;2.72;;;;;;;21.63;43.94;98169.59;5109742;28;20050;-94
2021/05/12 11:18:49;;;;;;;5.47;2.25;;;;;;;22.13;44.66;98181.63;5117007;28;20052;-93
2021/05/12 11:21:35;;;;;;;4.50;1.70;;;;;;;22.56;41.50;98175.31;5118914;28;20118;-93
2021/05/12 11:24:11;;;;;;;5.00;1.77;;;;;;;22.49;40.59;98159.72;5118461;28;20485;-94
2021/05/12 11:32:32;;;;;;;6.25;1.88;;;;;;;21.89;44.46;98173.72;5191636;27;20339;-95
2021/05/12 11:35:01;;;;;;;8.52;2.17;;;;;;;21.81;42.33;98170.78;5142736;27;20036;-95
2021/05/12 11:37:28;;;;;;;5.15;1.98;;;;;;;21.36;42.90;98154.63;5139963;27;20043;-92
2021/05/12 11:39:56;;;;;;;6.38;1.67;;;;;;;21.13;43.63;98157.31;5152290;27;20042;-93
2021/05/12 11:42:25;;;;;;;5.10;1.92;;;;;;;21.80;42.32;98149.28;5157737;27;20043;-93
2021/05/12 11:45:03;;;;;;;8.00;2.38;;;;;;;21.97;43.06;98146.03;5145242;27;20039;-93
2021/05/12 11:47:32;;;;;;;5.93;1.83;;;;;;;21.99;42.73;98163.00;5152678;27;20056;-93
2021/05/12 11:49:58;;;;;;;5.57;2.22;;;;;;;21.57;43.17;98145.75;5152278;27;20042;-93
2021/05/12 11:52:31;;;;;;;4.93;2.10;;;;;;;21.28;43.78;98157.06;5147383;27;20041;-94
2021/05/12 11:55:04;;;;;;;5.00;1.92;;;;;;;20.84;45.16;98156.06;5150069;27;20066;-94
2021/05/12 11:57:30;;;;;;;3.00;1.63;;;;;;;20.68;45.34;98162.66;5154822;27;20434;-93
2021/05/12 12:00:02;;;;;;;7.43;2.50;;;;;;;20.39;46.82;98158.66;5150980;27;20084;-92